Terminal Aerodrome Forecast
Issued by NWS

Home | Current Version | Previous Version | Text Only | Print | Product List | Glossary On
Versions: 1 2 3 4 5 6 7 8 9 10 11 12 13 14 15 16 17 18 19 20 21
000
FTUS41 KOKX 310800 AAA
TAFSWF
TAF AMD
KSWF 310831Z 3109/0112 VRB03KT P6SM SCT050
      TEMPO 3109/3113 BKN050
     FM311500 07005KT P6SM BKN040
     FM312100 09006KT P6SM BKN035
     FM010200 07005KT P6SM -RA SCT025 BKN035
     FM010600 06005KT 5SM -RA BR BKN025
      AMD NOT SKED=

USA.gov is the U.S. government's official web portal to all federal, state and local government web resources and services.